sensor_id;sensor_type;location;lat;lon;timestamp;P1;durP1;ratioP1;P2;durP2;ratioP2
63714;SDS011;49858;48.956;9.076;2023-12-04T00:02:35;33.25;;;14.90;;
63714;SDS011;49858;48.956;9.076;2023-12-04T00:10:47;20.98;;;11.05;;
63714;SDS011;49858;48.956;9.076;2023-12-04T00:13:15;22.50;;;10.40;;
63714;SDS011;49858;48.956;9.076;2023-12-04T00:15:43;20.77;;;10.30;;
63714;SDS011;49858;48.956;9.076;2023-12-04T00:25:53;15.93;;;8.07;;
63714;SDS011;49858;48.956;9.076;2023-12-04T00:45:43;23.45;;;11.48;;
63714;SDS011;49858;48.956;9.076;2023-12-04T00:48:25;19.50;;;10.65;;
63714;SDS011;49858;48.956;9.076;2023-12-04T00:51:35;17.08;;;9.35;;
63714;SDS011;49858;48.956;9.076;2023-12-04T00:54:18;17.13;;;8.30;;
63714;SDS011;49858;48.956;9.076;2023-12-04T00:57:08;27.08;;;13.60;;
63714;SDS011;49858;48.956;9.076;2023-12-04T00:59:55;17.25;;;8.75;;
63714;SDS011;49858;48.956;9.076;2023-12-04T01:02:49;15.40;;;8.07;;
63714;SDS011;49858;48.956;9.076;2023-12-04T01:05:47;26.45;;;12.10;;
63714;SDS011;49858;48.956;9.076;2023-12-04T01:12:12;21.58;;;10.68;;
63714;SDS011;49858;48.956;9.076;2023-12-04T01:14:44;18.83;;;9.43;;
63714;SDS011;49858;48.956;9.076;2023-12-04T01:17:28;17.15;;;7.85;;
63714;SDS011;49858;48.956;9.076;2023-12-04T01:20:07;21.48;;;10.07;;
63714;SDS011;49858;48.956;9.076;2023-12-04T01:23:02;21.05;;;9.52;;
63714;SDS011;49858;48.956;9.076;2023-12-04T01:25:34;17.58;;;9.55;;
63714;SDS011;49858;48.956;9.076;2023-12-04T01:28:02;22.73;;;10.32;;
63714;SDS011;49858;48.956;9.076;2023-12-04T01:30:30;28.25;;;11.32;;
63714;SDS011;49858;48.956;9.076;2023-12-04T01:33:00;20.25;;;10.13;;
63714;SDS011;49858;48.956;9.076;2023-12-04T01:35:29;28.17;;;11.52;;
63714;SDS011;49858;48.956;9.076;2023-12-04T01:37:57;21.85;;;8.93;;
63714;SDS011;49858;48.956;9.076;2023-12-04T01:40:25;22.48;;;11.32;;
63714;SDS011;49858;48.956;9.076;2023-12-04T01:42:53;22.73;;;10.85;;
63714;SDS011;49858;48.956;9.076;2023-12-04T01:45:21;13.88;;;7.82;;
63714;SDS011;49858;48.956;9.076;2023-12-04T01:47:49;20.52;;;11.93;;
63714;SDS011;49858;48.956;9.076;2023-12-04T01:50:17;21.83;;;8.80;;
63714;SDS011;49858;48.956;9.076;2023-12-04T01:52:46;21.95;;;11.80;;
63714;SDS011;49858;48.956;9.076;2023-12-04T01:55:15;31.05;;;11.98;;
63714;SDS011;49858;48.956;9.076;2023-12-04T01:57:43;21.63;;;9.32;;
63714;SDS011;49858;48.956;9.076;2023-12-04T02:00:12;22.13;;;10.50;;
63714;SDS011;49858;48.956;9.076;2023-12-04T02:02:41;23.27;;;11.43;;
63714;SDS011;49858;48.956;9.076;2023-12-04T02:05:09;23.80;;;10.43;;
63714;SDS011;49858;48.956;9.076;2023-12-04T02:07:38;24.73;;;10.73;;
63714;SDS011;49858;48.956;9.076;2023-12-04T02:10:09;25.33;;;11.60;;
63714;SDS011;49858;48.956;9.076;2023-12-04T02:12:38;18.73;;;9.18;;
63714;SDS011;49858;48.956;9.076;2023-12-04T02:15:06;28.90;;;12.90;;
63714;SDS011;49858;48.956;9.076;2023-12-04T02:17:35;12.40;;;7.82;;
63714;SDS011;49858;48.956;9.076;2023-12-04T02:20:04;18.52;;;10.48;;
63714;SDS011;49858;48.956;9.076;2023-12-04T02:22:35;25.20;;;10.45;;
63714;SDS011;49858;48.956;9.076;2023-12-04T02:25:04;21.58;;;9.02;;
63714;SDS011;49858;48.956;9.076;2023-12-04T02:27:45;20.25;;;8.63;;
63714;SDS011;49858;48.956;9.076;2023-12-04T02:30:17;27.97;;;13.00;;
63714;SDS011;49858;48.956;9.076;2023-12-04T02:32:47;19.80;;;10.75;;
63714;SDS011;49858;48.956;9.076;2023-12-04T02:35:20;19.73;;;9.80;;
63714;SDS011;49858;48.956;9.076;2023-12-04T02:40:19;12.15;;;8.13;;
63714;SDS011;49858;48.956;9.076;2023-12-04T02:42:47;21.75;;;10.20;;
63714;SDS011;49858;48.956;9.076;2023-12-04T02:45:15;17.13;;;8.88;;
63714;SDS011;49858;48.956;9.076;2023-12-04T02:47:43;27.80;;;12.88;;
63714;SDS011;49858;48.956;9.076;2023-12-04T02:50:11;12.90;;;8.68;;
63714;SDS011;49858;48.956;9.076;2023-12-04T02:52:39;20.38;;;10.40;;
63714;SDS011;49858;48.956;9.076;2023-12-04T02:55:07;26.20;;;11.40;;
63714;SDS011;49858;48.956;9.076;2023-12-04T02:57:37;25.98;;;13.00;;
63714;SDS011;49858;48.956;9.076;2023-12-04T03:00:05;30.80;;;15.15;;
63714;SDS011;49858;48.956;9.076;2023-12-04T03:02:34;28.80;;;13.85;;
63714;SDS011;49858;48.956;9.076;2023-12-04T03:05:02;34.78;;;16.55;;
63714;SDS011;49858;48.956;9.076;2023-12-04T03:07:30;23.40;;;12.80;;
63714;SDS011;49858;48.956;9.076;2023-12-04T03:09:58;23.40;;;13.13;;
63714;SDS011;49858;48.956;9.076;2023-12-04T03:12:26;24.85;;;12.70;;
63714;SDS011;49858;48.956;9.076;2023-12-04T03:14:55;32.78;;;13.20;;
63714;SDS011;49858;48.956;9.076;2023-12-04T03:17:23;26.10;;;13.77;;
63714;SDS011;49858;48.956;9.076;2023-12-04T03:19:52;19.33;;;9.93;;
63714;SDS011;49858;48.956;9.076;2023-12-04T03:22:19;19.83;;;10.10;;
63714;SDS011;49858;48.956;9.076;2023-12-04T03:24:47;25.45;;;11.60;;
63714;SDS011;49858;48.956;9.076;2023-12-04T03:27:15;26.17;;;12.00;;
63714;SDS011;49858;48.956;9.076;2023-12-04T03:29:43;21.58;;;11.38;;
63714;SDS011;49858;48.956;9.076;2023-12-04T03:32:12;23.50;;;11.75;;
63714;SDS011;49858;48.956;9.076;2023-12-04T03:34:40;22.42;;;12.18;;
63714;SDS011;49858;48.956;9.076;2023-12-04T03:37:08;25.83;;;12.38;;
63714;SDS011;49858;48.956;9.076;2023-12-04T03:39:36;24.02;;;11.98;;
63714;SDS011;49858;48.956;9.076;2023-12-04T03:42:04;19.77;;;11.90;;
63714;SDS011;49858;48.956;9.076;2023-12-04T03:44:32;20.55;;;10.57;;
63714;SDS011;49858;48.956;9.076;2023-12-04T03:47:00;26.15;;;10.75;;
63714;SDS011;49858;48.956;9.076;2023-12-04T03:49:29;30.27;;;15.13;;
63714;SDS011;49858;48.956;9.076;2023-12-04T03:51:57;31.27;;;14.45;;
63714;SDS011;49858;48.956;9.076;2023-12-04T03:54:25;28.67;;;12.63;;
63714;SDS011;49858;48.956;9.076;2023-12-04T03:56:53;18.30;;;8.63;;
63714;SDS011;49858;48.956;9.076;2023-12-04T03:59:20;19.02;;;10.88;;
63714;SDS011;49858;48.956;9.076;2023-12-04T04:01:48;27.70;;;13.93;;
63714;SDS011;49858;48.956;9.076;2023-12-04T04:04:16;30.00;;;14.32;;
63714;SDS011;49858;48.956;9.076;2023-12-04T04:06:45;29.05;;;12.57;;
63714;SDS011;49858;48.956;9.076;2023-12-04T04:09:13;37.92;;;17.63;;
63714;SDS011;49858;48.956;9.076;2023-12-04T04:11:42;22.65;;;12.85;;
63714;SDS011;49858;48.956;9.076;2023-12-04T04:14:10;33.00;;;16.67;;
63714;SDS011;49858;48.956;9.076;2023-12-04T04:16:37;27.45;;;14.07;;
63714;SDS011;49858;48.956;9.076;2023-12-04T04:19:05;21.08;;;11.25;;
63714;SDS011;49858;48.956;9.076;2023-12-04T04:21:34;18.58;;;9.10;;
63714;SDS011;49858;48.956;9.076;2023-12-04T04:24:03;17.30;;;8.32;;
63714;SDS011;49858;48.956;9.076;2023-12-04T04:26:31;15.93;;;8.30;;
63714;SDS011;49858;48.956;9.076;2023-12-04T04:28:59;19.00;;;7.72;;
63714;SDS011;49858;48.956;9.076;2023-12-04T04:31:27;14.07;;;7.93;;
63714;SDS011;49858;48.956;9.076;2023-12-04T04:33:55;22.38;;;11.18;;
63714;SDS011;49858;48.956;9.076;2023-12-04T04:36:23;25.65;;;12.93;;
63714;SDS011;49858;48.956;9.076;2023-12-04T04:38:51;23.80;;;11.32;;
63714;SDS011;49858;48.956;9.076;2023-12-04T04:41:20;26.67;;;12.77;;
63714;SDS011;49858;48.956;9.076;2023-12-04T04:43:48;21.90;;;9.70;;
63714;SDS011;49858;48.956;9.076;2023-12-04T04:46:16;27.02;;;12.55;;
63714;SDS011;49858;48.956;9.076;2023-12-04T04:48:44;21.95;;;9.43;;
63714;SDS011;49858;48.956;9.076;2023-12-04T04:51:12;13.27;;;8.05;;
63714;SDS011;49858;48.956;9.076;2023-12-04T04:53:40;22.13;;;10.20;;
63714;SDS011;49858;48.956;9.076;2023-12-04T04:56:08;17.33;;;7.10;;
63714;SDS011;49858;48.956;9.076;2023-12-04T04:58:38;23.35;;;10.07;;
63714;SDS011;49858;48.956;9.076;2023-12-04T05:01:06;13.40;;;7.55;;
63714;SDS011;49858;48.956;9.076;2023-12-04T05:03:34;24.50;;;9.20;;
63714;SDS011;49858;48.956;9.076;2023-12-04T05:06:02;18.85;;;10.50;;
63714;SDS011;49858;48.956;9.076;2023-12-04T05:08:31;21.17;;;9.55;;
63714;SDS011;49858;48.956;9.076;2023-12-04T05:10:58;24.35;;;11.30;;
63714;SDS011;49858;48.956;9.076;2023-12-04T05:13:26;20.80;;;10.55;;
63714;SDS011;49858;48.956;9.076;2023-12-04T05:15:55;22.02;;;10.20;;
63714;SDS011;49858;48.956;9.076;2023-12-04T05:18:23;21.42;;;11.18;;
63714;SDS011;49858;48.956;9.076;2023-12-04T05:20:51;25.42;;;10.93;;
63714;SDS011;49858;48.956;9.076;2023-12-04T05:23:19;25.48;;;12.07;;
63714;SDS011;49858;48.956;9.076;2023-12-04T05:25:47;24.90;;;10.90;;
63714;SDS011;49858;48.956;9.076;2023-12-04T05:28:16;18.75;;;9.40;;
63714;SDS011;49858;48.956;9.076;2023-12-04T05:30:44;19.33;;;9.85;;
63714;SDS011;49858;48.956;9.076;2023-12-04T05:33:14;26.10;;;11.95;;
63714;SDS011;49858;48.956;9.076;2023-12-04T05:35:42;19.42;;;9.90;;
63714;SDS011;49858;48.956;9.076;2023-12-04T05:38:10;23.05;;;10.63;;
63714;SDS011;49858;48.956;9.076;2023-12-04T05:40:38;20.23;;;7.93;;
63714;SDS011;49858;48.956;9.076;2023-12-04T05:43:06;20.90;;;9.82;;
63714;SDS011;49858;48.956;9.076;2023-12-04T05:45:34;19.10;;;9.20;;
63714;SDS011;49858;48.956;9.076;2023-12-04T05:48:02;18.15;;;9.52;;
63714;SDS011;49858;48.956;9.076;2023-12-04T05:50:32;19.05;;;9.50;;
63714;SDS011;49858;48.956;9.076;2023-12-04T05:52:59;21.85;;;9.48;;
63714;SDS011;49858;48.956;9.076;2023-12-04T05:55:27;13.68;;;8.05;;
63714;SDS011;49858;48.956;9.076;2023-12-04T05:57:55;20.23;;;8.57;;
63714;SDS011;49858;48.956;9.076;2023-12-04T06:00:23;14.98;;;8.30;;
63714;SDS011;49858;48.956;9.076;2023-12-04T06:02:54;16.50;;;7.60;;
63714;SDS011;49858;48.956;9.076;2023-12-04T06:05:22;13.30;;;8.50;;
63714;SDS011;49858;48.956;9.076;2023-12-04T06:07:52;11.35;;;5.75;;
63714;SDS011;49858;48.956;9.076;2023-12-04T06:10:19;10.25;;;6.00;;
63714;SDS011;49858;48.956;9.076;2023-12-04T06:12:47;17.17;;;8.50;;
63714;SDS011;49858;48.956;9.076;2023-12-04T06:15:15;17.88;;;9.80;;
63714;SDS011;49858;48.956;9.076;2023-12-04T06:17:43;19.08;;;9.73;;
63714;SDS011;49858;48.956;9.076;2023-12-04T06:20:11;16.05;;;7.93;;
63714;SDS011;49858;48.956;9.076;2023-12-04T06:22:39;17.75;;;7.90;;
63714;SDS011;49858;48.956;9.076;2023-12-04T06:25:09;19.48;;;7.88;;
63714;SDS011;49858;48.956;9.076;2023-12-04T06:27:38;18.80;;;8.90;;
63714;SDS011;49858;48.956;9.076;2023-12-04T06:30:07;22.15;;;8.13;;
63714;SDS011;49858;48.956;9.076;2023-12-04T06:32:35;20.63;;;9.63;;
63714;SDS011;49858;48.956;9.076;2023-12-04T06:35:04;21.08;;;10.23;;
63714;SDS011;49858;48.956;9.076;2023-12-04T06:37:32;19.63;;;10.20;;
63714;SDS011;49858;48.956;9.076;2023-12-04T06:40:02;17.45;;;9.43;;
63714;SDS011;49858;48.956;9.076;2023-12-04T06:42:32;15.65;;;7.57;;
63714;SDS011;49858;48.956;9.076;2023-12-04T06:45:01;20.77;;;9.77;;
63714;SDS011;49858;48.956;9.076;2023-12-04T06:47:30;16.58;;;8.00;;
63714;SDS011;49858;48.956;9.076;2023-12-04T06:49:59;19.48;;;10.32;;
63714;SDS011;49858;48.956;9.076;2023-12-04T06:52:27;21.95;;;10.48;;
63714;SDS011;49858;48.956;9.076;2023-12-04T06:54:54;14.90;;;7.68;;
63714;SDS011;49858;48.956;9.076;2023-12-04T06:57:22;26.85;;;11.48;;
63714;SDS011;49858;48.956;9.076;2023-12-04T06:59:51;22.45;;;10.35;;
63714;SDS011;49858;48.956;9.076;2023-12-04T07:02:19;20.45;;;9.02;;
63714;SDS011;49858;48.956;9.076;2023-12-04T07:04:47;15.65;;;8.35;;
63714;SDS011;49858;48.956;9.076;2023-12-04T07:07:15;11.23;;;7.15;;
63714;SDS011;49858;48.956;9.076;2023-12-04T07:09:43;16.23;;;8.43;;
63714;SDS011;49858;48.956;9.076;2023-12-04T07:12:11;13.32;;;7.15;;
63714;SDS011;49858;48.956;9.076;2023-12-04T07:14:39;20.20;;;9.90;;
63714;SDS011;49858;48.956;9.076;2023-12-04T07:17:08;16.08;;;8.13;;
63714;SDS011;49858;48.956;9.076;2023-12-04T07:19:37;22.17;;;10.00;;
63714;SDS011;49858;48.956;9.076;2023-12-04T07:22:05;17.67;;;8.38;;
63714;SDS011;49858;48.956;9.076;2023-12-04T07:24:33;15.90;;;8.07;;
63714;SDS011;49858;48.956;9.076;2023-12-04T07:27:01;19.88;;;10.07;;
63714;SDS011;49858;48.956;9.076;2023-12-04T07:29:29;16.25;;;9.68;;
63714;SDS011;49858;48.956;9.076;2023-12-04T07:31:57;19.13;;;9.73;;
63714;SDS011;49858;48.956;9.076;2023-12-04T07:34:27;14.80;;;7.35;;
63714;SDS011;49858;48.956;9.076;2023-12-04T07:36:55;15.15;;;8.23;;
63714;SDS011;49858;48.956;9.076;2023-12-04T07:39:23;10.90;;;6.32;;
63714;SDS011;49858;48.956;9.076;2023-12-04T07:41:51;11.80;;;6.65;;
63714;SDS011;49858;48.956;9.076;2023-12-04T07:44:19;23.17;;;10.98;;
63714;SDS011;49858;48.956;9.076;2023-12-04T07:46:47;15.50;;;8.90;;
63714;SDS011;49858;48.956;9.076;2023-12-04T07:49:14;22.48;;;9.85;;
63714;SDS011;49858;48.956;9.076;2023-12-04T07:51:44;15.13;;;7.35;;
63714;SDS011;49858;48.956;9.076;2023-12-04T07:54:12;18.58;;;10.13;;
63714;SDS011;49858;48.956;9.076;2023-12-04T07:56:40;19.52;;;7.65;;
63714;SDS011;49858;48.956;9.076;2023-12-04T07:59:09;25.60;;;11.57;;
63714;SDS011;49858;48.956;9.076;2023-12-04T08:01:39;20.45;;;11.20;;
63714;SDS011;49858;48.956;9.076;2023-12-04T08:04:07;20.23;;;10.27;;
63714;SDS011;49858;48.956;9.076;2023-12-04T08:06:35;22.88;;;11.88;;
63714;SDS011;49858;48.956;9.076;2023-12-04T08:09:05;16.67;;;9.32;;
63714;SDS011;49858;48.956;9.076;2023-12-04T08:11:36;18.58;;;10.23;;
63714;SDS011;49858;48.956;9.076;2023-12-04T08:14:05;19.52;;;10.35;;
63714;SDS011;49858;48.956;9.076;2023-12-04T08:16:33;7.88;;;5.28;;
63714;SDS011;49858;48.956;9.076;2023-12-04T08:19:01;11.13;;;6.75;;
63714;SDS011;49858;48.956;9.076;2023-12-04T08:21:29;20.08;;;8.75;;
63714;SDS011;49858;48.956;9.076;2023-12-04T08:23:58;16.75;;;7.50;;
63714;SDS011;49858;48.956;9.076;2023-12-04T08:26:27;19.70;;;11.07;;
63714;SDS011;49858;48.956;9.076;2023-12-04T08:28:55;7.60;;;4.28;;
63714;SDS011;49858;48.956;9.076;2023-12-04T08:31:23;17.60;;;9.05;;
63714;SDS011;49858;48.956;9.076;2023-12-04T08:33:51;16.48;;;9.05;;
63714;SDS011;49858;48.956;9.076;2023-12-04T08:36:19;14.70;;;6.63;;
63714;SDS011;49858;48.956;9.076;2023-12-04T08:38:47;18.55;;;9.00;;
63714;SDS011;49858;48.956;9.076;2023-12-04T08:41:15;14.90;;;8.02;;
63714;SDS011;49858;48.956;9.076;2023-12-04T08:43:44;14.80;;;7.20;;
63714;SDS011;49858;48.956;9.076;2023-12-04T08:46:12;19.70;;;10.80;;
63714;SDS011;49858;48.956;9.076;2023-12-04T08:48:41;14.50;;;8.18;;
63714;SDS011;49858;48.956;9.076;2023-12-04T08:51:14;14.93;;;8.48;;
63714;SDS011;49858;48.956;9.076;2023-12-04T08:53:42;14.13;;;8.32;;
63714;SDS011;49858;48.956;9.076;2023-12-04T08:56:10;20.13;;;9.38;;
63714;SDS011;49858;48.956;9.076;2023-12-04T08:58:48;17.60;;;7.95;;
63714;SDS011;49858;48.956;9.076;2023-12-04T09:01:17;18.08;;;8.40;;
63714;SDS011;49858;48.956;9.076;2023-12-04T09:03:45;16.15;;;8.35;;
63714;SDS011;49858;48.956;9.076;2023-12-04T09:06:13;19.48;;;9.25;;
63714;SDS011;49858;48.956;9.076;2023-12-04T09:08:42;18.95;;;9.80;;
63714;SDS011;49858;48.956;9.076;2023-12-04T09:11:22;15.48;;;7.25;;
63714;SDS011;49858;48.956;9.076;2023-12-04T09:13:51;16.73;;;9.32;;
63714;SDS011;49858;48.956;9.076;2023-12-04T09:16:19;9.88;;;6.22;;
63714;SDS011;49858;48.956;9.076;2023-12-04T09:18:47;11.90;;;7.35;;
63714;SDS011;49858;48.956;9.076;2023-12-04T09:21:15;20.48;;;9.43;;
63714;SDS011;49858;48.956;9.076;2023-12-04T09:23:43;21.10;;;9.38;;
63714;SDS011;49858;48.956;9.076;2023-12-04T09:26:16;21.75;;;10.50;;
63714;SDS011;49858;48.956;9.076;2023-12-04T09:28:44;20.15;;;10.65;;
63714;SDS011;49858;48.956;9.076;2023-12-04T09:31:14;16.65;;;8.60;;
63714;SDS011;49858;48.956;9.076;2023-12-04T09:33:42;17.98;;;9.23;;
63714;SDS011;49858;48.956;9.076;2023-12-04T09:36:10;18.38;;;10.98;;
63714;SDS011;49858;48.956;9.076;2023-12-04T09:38:38;18.83;;;8.32;;
63714;SDS011;49858;48.956;9.076;2023-12-04T09:41:06;24.95;;;12.80;;
63714;SDS011;49858;48.956;9.076;2023-12-04T09:43:36;23.25;;;12.15;;
63714;SDS011;49858;48.956;9.076;2023-12-04T09:46:04;16.02;;;8.73;;
63714;SDS011;49858;48.956;9.076;2023-12-04T09:48:35;20.33;;;11.30;;
63714;SDS011;49858;48.956;9.076;2023-12-04T09:51:06;23.70;;;10.32;;
63714;SDS011;49858;48.956;9.076;2023-12-04T09:53:35;19.73;;;10.95;;
63714;SDS011;49858;48.956;9.076;2023-12-04T09:56:03;17.27;;;7.85;;
63714;SDS011;49858;48.956;9.076;2023-12-04T09:58:32;20.80;;;10.00;;
63714;SDS011;49858;48.956;9.076;2023-12-04T10:01:01;14.32;;;6.07;;
63714;SDS011;49858;48.956;9.076;2023-12-04T10:03:30;20.23;;;8.82;;
63714;SDS011;49858;48.956;9.076;2023-12-04T10:06:01;20.73;;;11.15;;
63714;SDS011;49858;48.956;9.076;2023-12-04T10:08:30;23.63;;;9.00;;
63714;SDS011;49858;48.956;9.076;2023-12-04T10:10:58;22.80;;;10.63;;
63714;SDS011;49858;48.956;9.076;2023-12-04T10:13:27;14.45;;;9.02;;
63714;SDS011;49858;48.956;9.076;2023-12-04T10:16:24;17.00;;;9.63;;
63714;SDS011;49858;48.956;9.076;2023-12-04T10:19:13;22.70;;;12.32;;
63714;SDS011;49858;48.956;9.076;2023-12-04T10:21:44;19.60;;;11.25;;
63714;SDS011;49858;48.956;9.076;2023-12-04T10:24:13;25.42;;;9.48;;
63714;SDS011;49858;48.956;9.076;2023-12-04T10:26:53;18.90;;;8.05;;
63714;SDS011;49858;48.956;9.076;2023-12-04T10:29:22;17.88;;;8.70;;
63714;SDS011;49858;48.956;9.076;2023-12-04T10:31:50;19.95;;;11.25;;
63714;SDS011;49858;48.956;9.076;2023-12-04T10:34:21;14.80;;;8.75;;
63714;SDS011;49858;48.956;9.076;2023-12-04T10:36:54;19.48;;;8.93;;
63714;SDS011;49858;48.956;9.076;2023-12-04T10:39:24;17.08;;;7.60;;
63714;SDS011;49858;48.956;9.076;2023-12-04T10:41:58;18.80;;;10.40;;
63714;SDS011;49858;48.956;9.076;2023-12-04T10:44:30;18.33;;;10.68;;
63714;SDS011;49858;48.956;9.076;2023-12-04T10:46:59;17.20;;;8.85;;
63714;SDS011;49858;48.956;9.076;2023-12-04T10:49:28;17.00;;;9.90;;
63714;SDS011;49858;48.956;9.076;2023-12-04T10:51:59;16.95;;;8.20;;
63714;SDS011;49858;48.956;9.076;2023-12-04T10:54:28;16.88;;;9.25;;
63714;SDS011;49858;48.956;9.076;2023-12-04T10:57:01;11.02;;;6.95;;
63714;SDS011;49858;48.956;9.076;2023-12-04T10:59:32;24.75;;;12.32;;
63714;SDS011;49858;48.956;9.076;2023-12-04T11:02:05;20.75;;;10.38;;
63714;SDS011;49858;48.956;9.076;2023-12-04T11:04:35;30.60;;;9.60;;
63714;SDS011;49858;48.956;9.076;2023-12-04T11:07:07;10.43;;;6.45;;
63714;SDS011;49858;48.956;9.076;2023-12-04T11:09:37;19.48;;;9.35;;
63714;SDS011;49858;48.956;9.076;2023-12-04T11:12:08;23.27;;;9.07;;
63714;SDS011;49858;48.956;9.076;2023-12-04T11:14:39;17.65;;;8.57;;
63714;SDS011;49858;48.956;9.076;2023-12-04T11:17:12;23.10;;;11.32;;
63714;SDS011;49858;48.956;9.076;2023-12-04T11:19:45;12.25;;;7.32;;
63714;SDS011;49858;48.956;9.076;2023-12-04T11:22:19;13.73;;;7.47;;
63714;SDS011;49858;48.956;9.076;2023-12-04T11:24:49;18.45;;;8.15;;
63714;SDS011;49858;48.956;9.076;2023-12-04T11:27:17;22.40;;;11.82;;
63714;SDS011;49858;48.956;9.076;2023-12-04T11:29:45;24.45;;;11.10;;
63714;SDS011;49858;48.956;9.076;2023-12-04T11:32:14;22.35;;;11.95;;
63714;SDS011;49858;48.956;9.076;2023-12-04T11:34:49;21.58;;;10.43;;
63714;SDS011;49858;48.956;9.076;2023-12-04T11:37:20;17.08;;;8.63;;
63714;SDS011;49858;48.956;9.076;2023-12-04T11:39:50;15.48;;;8.15;;
63714;SDS011;49858;48.956;9.076;2023-12-04T11:42:18;18.40;;;9.20;;
63714;SDS011;49858;48.956;9.076;2023-12-04T11:44:47;29.65;;;12.93;;
63714;SDS011;49858;48.956;9.076;2023-12-04T11:47:16;28.00;;;11.25;;
63714;SDS011;49858;48.956;9.076;2023-12-04T11:49:44;22.33;;;11.75;;
63714;SDS011;49858;48.956;9.076;2023-12-04T11:52:12;20.42;;;9.98;;
63714;SDS011;49858;48.956;9.076;2023-12-04T11:54:57;27.05;;;12.05;;
63714;SDS011;49858;48.956;9.076;2023-12-04T11:57:27;34.63;;;16.23;;
63714;SDS011;49858;48.956;9.076;2023-12-04T12:00:10;28.00;;;11.50;;
63714;SDS011;49858;48.956;9.076;2023-12-04T12:03:00;25.45;;;12.55;;
63714;SDS011;49858;48.956;9.076;2023-12-04T12:05:48;25.52;;;13.77;;
63714;SDS011;49858;48.956;9.076;2023-12-04T12:08:17;30.08;;;13.05;;
63714;SDS011;49858;48.956;9.076;2023-12-04T12:10:46;29.75;;;14.80;;
63714;SDS011;49858;48.956;9.076;2023-12-04T12:13:14;23.73;;;11.68;;
63714;SDS011;49858;48.956;9.076;2023-12-04T12:15:42;31.10;;;15.23;;
63714;SDS011;49858;48.956;9.076;2023-12-04T12:18:14;33.65;;;13.13;;
63714;SDS011;49858;48.956;9.076;2023-12-04T12:20:42;35.97;;;11.95;;
63714;SDS011;49858;48.956;9.076;2023-12-04T12:23:10;28.63;;;13.23;;
63714;SDS011;49858;48.956;9.076;2023-12-04T12:25:38;26.98;;;14.07;;
63714;SDS011;49858;48.956;9.076;2023-12-04T12:28:07;34.60;;;15.75;;
63714;SDS011;49858;48.956;9.076;2023-12-04T12:30:35;24.65;;;12.38;;
63714;SDS011;49858;48.956;9.076;2023-12-04T12:33:03;26.88;;;12.90;;
63714;SDS011;49858;48.956;9.076;2023-12-04T12:35:31;40.25;;;17.73;;
63714;SDS011;49858;48.956;9.076;2023-12-04T12:37:58;28.85;;;13.35;;
63714;SDS011;49858;48.956;9.076;2023-12-04T12:40:27;24.65;;;12.02;;
63714;SDS011;49858;48.956;9.076;2023-12-04T12:43:03;30.67;;;12.70;;
63714;SDS011;49858;48.956;9.076;2023-12-04T12:45:42;32.80;;;15.45;;
63714;SDS011;49858;48.956;9.076;2023-12-04T12:48:11;32.13;;;13.63;;
63714;SDS011;49858;48.956;9.076;2023-12-04T12:50:41;26.83;;;12.88;;
63714;SDS011;49858;48.956;9.076;2023-12-04T12:53:10;17.33;;;9.63;;
63714;SDS011;49858;48.956;9.076;2023-12-04T12:55:38;24.38;;;12.05;;
63714;SDS011;49858;48.956;9.076;2023-12-04T12:58:06;24.73;;;13.27;;
63714;SDS011;49858;48.956;9.076;2023-12-04T13:00:35;38.83;;;14.55;;
63714;SDS011;49858;48.956;9.076;2023-12-04T13:03:05;31.17;;;14.38;;
63714;SDS011;49858;48.956;9.076;2023-12-04T13:05:33;29.55;;;14.52;;
63714;SDS011;49858;48.956;9.076;2023-12-04T13:08:01;34.20;;;15.70;;
63714;SDS011;49858;48.956;9.076;2023-12-04T13:10:30;34.45;;;16.92;;
63714;SDS011;49858;48.956;9.076;2023-12-04T13:12:58;32.60;;;13.57;;
63714;SDS011;49858;48.956;9.076;2023-12-04T13:15:26;40.08;;;16.70;;
63714;SDS011;49858;48.956;9.076;2023-12-04T13:17:54;30.63;;;14.30;;
63714;SDS011;49858;48.956;9.076;2023-12-04T13:20:24;41.88;;;17.05;;
63714;SDS011;49858;48.956;9.076;2023-12-04T13:22:52;31.95;;;15.00;;
63714;SDS011;49858;48.956;9.076;2023-12-04T13:25:20;28.10;;;12.75;;
63714;SDS011;49858;48.956;9.076;2023-12-04T13:27:52;34.42;;;19.05;;
63714;SDS011;49858;48.956;9.076;2023-12-04T13:30:20;47.95;;;22.35;;
63714;SDS011;49858;48.956;9.076;2023-12-04T13:32:48;47.03;;;19.42;;
63714;SDS011;49858;48.956;9.076;2023-12-04T13:35:17;37.45;;;17.67;;
63714;SDS011;49858;48.956;9.076;2023-12-04T13:37:47;44.88;;;21.25;;
63714;SDS011;49858;48.956;9.076;2023-12-04T13:40:21;34.58;;;16.05;;
63714;SDS011;49858;48.956;9.076;2023-12-04T13:42:52;25.95;;;14.85;;
63714;SDS011;49858;48.956;9.076;2023-12-04T13:45:38;44.78;;;21.50;;
63714;SDS011;49858;48.956;9.076;2023-12-04T13:48:06;35.97;;;16.20;;
63714;SDS011;49858;48.956;9.076;2023-12-04T13:50:34;29.88;;;13.10;;
63714;SDS011;49858;48.956;9.076;2023-12-04T13:53:03;37.88;;;17.63;;
63714;SDS011;49858;48.956;9.076;2023-12-04T13:55:33;29.95;;;15.60;;
63714;SDS011;49858;48.956;9.076;2023-12-04T13:58:14;37.95;;;17.00;;
63714;SDS011;49858;48.956;9.076;2023-12-04T14:01:04;39.33;;;18.33;;
63714;SDS011;49858;48.956;9.076;2023-12-04T14:03:41;49.85;;;18.05;;
63714;SDS011;49858;48.956;9.076;2023-12-04T14:06:11;35.13;;;17.05;;
63714;SDS011;49858;48.956;9.076;2023-12-04T14:08:44;33.47;;;16.67;;
63714;SDS011;49858;48.956;9.076;2023-12-04T14:11:12;35.67;;;18.73;;
63714;SDS011;49858;48.956;9.076;2023-12-04T14:13:41;26.80;;;13.52;;
63714;SDS011;49858;48.956;9.076;2023-12-04T14:16:10;43.38;;;20.63;;
63714;SDS011;49858;48.956;9.076;2023-12-04T14:18:38;43.10;;;21.23;;
63714;SDS011;49858;48.956;9.076;2023-12-04T14:21:07;36.38;;;16.60;;
63714;SDS011;49858;48.956;9.076;2023-12-04T14:23:35;41.70;;;19.70;;
63714;SDS011;49858;48.956;9.076;2023-12-04T14:26:05;27.75;;;14.90;;
63714;SDS011;49858;48.956;9.076;2023-12-04T14:28:33;36.25;;;14.98;;
63714;SDS011;49858;48.956;9.076;2023-12-04T14:31:08;44.75;;;18.17;;
63714;SDS011;49858;48.956;9.076;2023-12-04T14:33:37;40.58;;;18.35;;
63714;SDS011;49858;48.956;9.076;2023-12-04T14:36:09;38.13;;;18.05;;
63714;SDS011;49858;48.956;9.076;2023-12-04T14:38:39;33.75;;;16.60;;
63714;SDS011;49858;48.956;9.076;2023-12-04T14:41:08;39.10;;;18.58;;
63714;SDS011;49858;48.956;9.076;2023-12-04T14:43:37;43.50;;;21.75;;
63714;SDS011;49858;48.956;9.076;2023-12-04T14:46:05;42.47;;;18.95;;
63714;SDS011;49858;48.956;9.076;2023-12-04T14:48:37;30.42;;;16.52;;
63714;SDS011;49858;48.956;9.076;2023-12-04T14:51:06;50.65;;;23.13;;
63714;SDS011;49858;48.956;9.076;2023-12-04T14:53:36;42.72;;;21.73;;
63714;SDS011;49858;48.956;9.076;2023-12-04T14:56:14;46.05;;;22.50;;
63714;SDS011;49858;48.956;9.076;2023-12-04T14:58:50;47.08;;;22.08;;
63714;SDS011;49858;48.956;9.076;2023-12-04T15:01:41;39.22;;;19.10;;
63714;SDS011;49858;48.956;9.076;2023-12-04T15:04:37;46.80;;;24.20;;
63714;SDS011;49858;48.956;9.076;2023-12-04T15:07:26;39.85;;;20.20;;
63714;SDS011;49858;48.956;9.076;2023-12-04T15:10:12;34.28;;;17.75;;
63714;SDS011;49858;48.956;9.076;2023-12-04T15:13:10;25.58;;;13.75;;
63714;SDS011;49858;48.956;9.076;2023-12-04T15:16:08;36.05;;;18.92;;
63714;SDS011;49858;48.956;9.076;2023-12-04T15:18:54;42.83;;;23.70;;
63714;SDS011;49858;48.956;9.076;2023-12-04T15:21:51;36.90;;;15.15;;
63714;SDS011;49858;48.956;9.076;2023-12-04T15:24:19;38.50;;;20.25;;